sensor_id;sensor_type;location;lat;lon;timestamp;pressure;altitude;pressure_sealevel;temperature;humidity
28310;BME280;15571;50.974;13.936;2023-04-28T00:01:13;100423.84;;;7.09;100.00
28310;BME280;15571;50.974;13.936;2023-04-28T00:04:17;100424.66;;;7.04;100.00
28310;BME280;15571;50.974;13.936;2023-04-28T00:07:21;100419.34;;;6.97;100.00
28310;BME280;15571;50.974;13.936;2023-04-28T00:10:25;100413.28;;;6.97;100.00
28310;BME280;15571;50.974;13.936;2023-04-28T00:13:29;100416.72;;;6.94;100.00
28310;BME280;15571;50.974;13.936;2023-04-28T00:16:32;100412.31;;;6.90;100.00
28310;BME280;15571;50.974;13.936;2023-04-28T00:19:37;100416.63;;;6.87;100.00
28310;BME280;15571;50.974;13.936;2023-04-28T00:22:46;100404.41;;;6.82;100.00
28310;BME280;15571;50.974;13.936;2023-04-28T00:25:58;100407.00;;;6.81;100.00
28310;BME280;15571;50.974;13.936;2023-04-28T00:29:01;100400.88;;;6.77;100.00
28310;BME280;15571;50.974;13.936;2023-04-28T00:32:05;100409.53;;;6.76;100.00
28310;BME280;15571;50.974;13.936;2023-04-28T00:35:10;100406.09;;;6.76;100.00
28310;BME280;15571;50.974;13.936;2023-04-28T00:38:16;100399.13;;;6.76;100.00
28310;BME280;15571;50.974;13.936;2023-04-28T00:41:20;100396.53;;;6.75;100.00
28310;BME280;15571;50.974;13.936;2023-04-28T00:44:26;100396.53;;;6.75;100.00
28310;BME280;15571;50.974;13.936;2023-04-28T00:47:33;100395.63;;;6.73;100.00
28310;BME280;15571;50.974;13.936;2023-04-28T00:50:37;100383.47;;;6.70;100.00
28310;BME280;15571;50.974;13.936;2023-04-28T00:53:47;100379.97;;;6.68;100.00
28310;BME280;15571;50.974;13.936;2023-04-28T00:56:55;100366.06;;;6.66;100.00
28310;BME280;15571;50.974;13.936;2023-04-28T01:00:01;100364.28;;;6.63;100.00
28310;BME280;15571;50.974;13.936;2023-04-28T01:03:18;100352.97;;;6.60;100.00
28310;BME280;15571;50.974;13.936;2023-04-28T01:06:22;100355.59;;;6.60;100.00
28310;BME280;15571;50.974;13.936;2023-04-28T01:09:27;100348.59;;;6.57;100.00
28310;BME280;15571;50.974;13.936;2023-04-28T01:12:30;100346.81;;;6.54;100.00
28310;BME280;15571;50.974;13.936;2023-04-28T01:15:38;100344.22;;;6.53;100.00
28310;BME280;15571;50.974;13.936;2023-04-28T01:18:46;100345.91;;;6.51;100.00
28310;BME280;15571;50.974;13.936;2023-04-28T01:25:18;100338.91;;;6.47;100.00
28310;BME280;15571;50.974;13.936;2023-04-28T01:28:24;100333.72;;;6.45;100.00
28310;BME280;15571;50.974;13.936;2023-04-28T01:31:26;100333.69;;;6.44;100.00
28310;BME280;15571;50.974;13.936;2023-04-28T01:34:33;100327.59;;;6.42;100.00
28310;BME280;15571;50.974;13.936;2023-04-28T01:37:36;100328.44;;;6.41;100.00
28310;BME280;15571;50.974;13.936;2023-04-28T01:40:40;100325.00;;;6.42;100.00
28310;BME280;15571;50.974;13.936;2023-04-28T01:43:47;100314.53;;;6.38;100.00
28310;BME280;15571;50.974;13.936;2023-04-28T01:46:49;100316.28;;;6.39;100.00
28310;BME280;15571;50.974;13.936;2023-04-28T01:49:55;100313.69;;;6.39;100.00
28310;BME280;15571;50.974;13.936;2023-04-28T01:53:00;100309.34;;;6.38;100.00
28310;BME280;15571;50.974;13.936;2023-04-28T01:56:04;100299.78;;;6.37;100.00
28310;BME280;15571;50.974;13.936;2023-04-28T01:59:10;100297.19;;;6.37;100.00
28310;BME280;15571;50.974;13.936;2023-04-28T02:02:12;100298.03;;;6.35;100.00
28310;BME280;15571;50.974;13.936;2023-04-28T02:05:16;100293.72;;;6.35;100.00
28310;BME280;15571;50.974;13.936;2023-04-28T02:08:24;100294.56;;;6.34;100.00
28310;BME280;15571;50.974;13.936;2023-04-28T02:11:34;100294.59;;;6.36;100.00
28310;BME280;15571;50.974;13.936;2023-04-28T02:14:41;100302.38;;;6.36;100.00
28310;BME280;15571;50.974;13.936;2023-04-28T02:17:51;100293.72;;;6.35;100.00
28310;BME280;15571;50.974;13.936;2023-04-28T02:20:56;100291.09;;;6.34;100.00
28310;BME280;15571;50.974;13.936;2023-04-28T02:24:09;100288.47;;;6.32;100.00
28310;BME280;15571;50.974;13.936;2023-04-28T02:27:13;100288.47;;;6.32;100.00
28310;BME280;15571;50.974;13.936;2023-04-28T02:30:22;100291.94;;;6.31;100.00
28310;BME280;15571;50.974;13.936;2023-04-28T02:33:31;100284.97;;;6.30;100.00
28310;BME280;15571;50.974;13.936;2023-04-28T02:36:38;100289.28;;;6.28;100.00
28310;BME280;15571;50.974;13.936;2023-04-28T02:39:42;100280.63;;;6.28;100.00
28310;BME280;15571;50.974;13.936;2023-04-28T02:42:58;100275.41;;;6.26;100.00
28310;BME280;15571;50.974;13.936;2023-04-28T02:46:02;100267.63;;;6.26;100.00
28310;BME280;15571;50.974;13.936;2023-04-28T02:49:06;100260.66;;;6.25;100.00
28310;BME280;15571;50.974;13.936;2023-04-28T02:52:16;100255.47;;;6.25;100.00
28310;BME280;15571;50.974;13.936;2023-04-28T02:55:20;100262.38;;;6.25;100.00
28310;BME280;15571;50.974;13.936;2023-04-28T02:58:29;100258.88;;;6.21;100.00
28310;BME280;15571;50.974;13.936;2023-04-28T03:01:35;100251.97;;;6.23;100.00
28310;BME280;15571;50.974;13.936;2023-04-28T03:04:41;100248.47;;;6.19;100.00
28310;BME280;15571;50.974;13.936;2023-04-28T03:07:49;100257.13;;;6.20;100.00
28310;BME280;15571;50.974;13.936;2023-04-28T03:11:00;100257.09;;;6.18;100.00
28310;BME280;15571;50.974;13.936;2023-04-28T03:14:08;100252.75;;;6.19;100.00
28310;BME280;15571;50.974;13.936;2023-04-28T03:17:13;100250.16;;;6.19;100.00
28310;BME280;15571;50.974;13.936;2023-04-28T03:20:16;100239.78;;;6.19;100.00
28310;BME280;15571;50.974;13.936;2023-04-28T03:23:26;100248.47;;;6.21;100.00
28310;BME280;15571;50.974;13.936;2023-04-28T03:26:31;100238.91;;;6.20;100.00
28310;BME280;15571;50.974;13.936;2023-04-28T03:29:37;100225.09;;;6.22;100.00
28310;BME280;15571;50.974;13.936;2023-04-28T03:32:45;100211.22;;;6.23;100.00
28310;BME280;15571;50.974;13.936;2023-04-28T03:35:49;100217.31;;;6.24;100.00
28310;BME280;15571;50.974;13.936;2023-04-28T03:39:00;100213.88;;;6.25;100.00
28310;BME280;15571;50.974;13.936;2023-04-28T03:42:06;100222.53;;;6.26;100.00
28310;BME280;15571;50.974;13.936;2023-04-28T03:45:17;100214.72;;;6.26;100.00
28310;BME280;15571;50.974;13.936;2023-04-28T03:48:24;100211.28;;;6.25;100.00
28310;BME280;15571;50.974;13.936;2023-04-28T03:51:32;100215.63;;;6.29;100.00
28310;BME280;15571;50.974;13.936;2023-04-28T03:54:41;100203.53;;;6.31;100.00
28310;BME280;15571;50.974;13.936;2023-04-28T03:57:50;100219.19;;;6.34;100.00
28310;BME280;15571;50.974;13.936;2023-04-28T04:01:05;100223.53;;;6.37;100.00
28310;BME280;15571;50.974;13.936;2023-04-28T04:04:15;100216.63;;;6.39;100.00
28310;BME280;15571;50.974;13.936;2023-04-28T04:07:19;100210.59;;;6.42;100.00
28310;BME280;15571;50.974;13.936;2023-04-28T04:10:29;100213.19;;;6.43;100.00
28310;BME280;15571;50.974;13.936;2023-04-28T04:13:37;100213.22;;;6.45;100.00
28310;BME280;15571;50.974;13.936;2023-04-28T04:16:47;100207.19;;;6.46;100.00
28310;BME280;15571;50.974;13.936;2023-04-28T04:19:52;100203.75;;;6.50;100.00
28310;BME280;15571;50.974;13.936;2023-04-28T04:22:54;100198.50;;;6.47;100.00
28310;BME280;15571;50.974;13.936;2023-04-28T04:25:58;100185.53;;;6.50;100.00
28310;BME280;15571;50.974;13.936;2023-04-28T04:29:05;100182.94;;;6.50;100.00
28310;BME280;15571;50.974;13.936;2023-04-28T04:32:16;100184.72;;;6.57;100.00
28310;BME280;15571;50.974;13.936;2023-04-28T04:35:21;100186.53;;;6.61;100.00
28310;BME280;15571;50.974;13.936;2023-04-28T04:38:25;100177.91;;;6.65;100.00
28310;BME280;15571;50.974;13.936;2023-04-28T04:41:28;100171.84;;;6.69;100.00
28310;BME280;15571;50.974;13.936;2023-04-28T04:44:47;100171.03;;;6.74;100.00
28310;BME280;15571;50.974;13.936;2023-04-28T04:48:04;100172.78;;;6.78;100.00
28310;BME280;15571;50.974;13.936;2023-04-28T04:51:09;100172.84;;;6.82;100.00
28310;BME280;15571;50.974;13.936;2023-04-28T04:54:18;100160.72;;;6.86;100.00
28310;BME280;15571;50.974;13.936;2023-04-28T04:57:24;100152.94;;;6.91;100.00
28310;BME280;15571;50.974;13.936;2023-04-28T05:00:45;100160.84;;;6.95;100.00
28310;BME280;15571;50.974;13.936;2023-04-28T05:03:52;100165.22;;;7.03;100.00
28310;BME280;15571;50.974;13.936;2023-04-28T05:06:54;100158.25;;;7.00;100.00
28310;BME280;15571;50.974;13.936;2023-04-28T05:09:59;100153.94;;;7.07;100.00
28310;BME280;15571;50.974;13.936;2023-04-28T05:13:06;100155.69;;;7.08;100.00
28310;BME280;15571;50.974;13.936;2023-04-28T05:16:12;100151.38;;;7.10;100.00
28310;BME280;15571;50.974;13.936;2023-04-28T05:19:34;100148.84;;;7.19;100.00
28310;BME280;15571;50.974;13.936;2023-04-28T05:22:38;100148.84;;;7.19;100.00
28310;BME280;15571;50.974;13.936;2023-04-28T05:25:41;100139.31;;;7.21;100.00
28310;BME280;15571;50.974;13.936;2023-04-28T05:28:43;100136.78;;;7.30;100.00
28310;BME280;15571;50.974;13.936;2023-04-28T05:31:47;100135.06;;;7.36;100.00
28310;BME280;15571;50.974;13.936;2023-04-28T05:34:53;100128.16;;;7.39;100.00
28310;BME280;15571;50.974;13.936;2023-04-28T05:37:56;100133.41;;;7.44;100.00
28310;BME280;15571;50.974;13.936;2023-04-28T05:41:01;100127.31;;;7.46;100.00
28310;BME280;15571;50.974;13.936;2023-04-28T05:44:05;100123.84;;;7.46;100.00
28310;BME280;15571;50.974;13.936;2023-04-28T05:47:10;100116.03;;;7.46;100.00
28310;BME280;15571;50.974;13.936;2023-04-28T05:50:15;100116.06;;;7.52;100.00
28310;BME280;15571;50.974;13.936;2023-04-28T05:53:19;100122.19;;;7.60;100.00
28310;BME280;15571;50.974;13.936;2023-04-28T05:56:27;100123.06;;;7.59;100.00
28310;BME280;15571;50.974;13.936;2023-04-28T05:59:34;100126.59;;;7.71;100.00
28310;BME280;15571;50.974;13.936;2023-04-28T06:02:41;100125.72;;;7.73;100.00
28310;BME280;15571;50.974;13.936;2023-04-28T06:05:49;100122.22;;;7.68;100.00
28310;BME280;15571;50.974;13.936;2023-04-28T06:08:56;100129.22;;;7.78;100.00
28310;BME280;15571;50.974;13.936;2023-04-28T06:12:01;100127.53;;;7.87;100.00
28310;BME280;15571;50.974;13.936;2023-04-28T06:15:05;100127.50;;;7.85;100.00
28310;BME280;15571;50.974;13.936;2023-04-28T06:18:10;100124.94;;;7.91;100.00
28310;BME280;15571;50.974;13.936;2023-04-28T06:21:14;100121.47;;;7.95;100.00
28310;BME280;15571;50.974;13.936;2023-04-28T06:28:40;100123.25;;;8.15;100.00
28310;BME280;15571;50.974;13.936;2023-04-28T06:31:49;100119.81;;;8.22;100.00
28310;BME280;15571;50.974;13.936;2023-04-28T06:34:58;100118.97;;;8.34;100.00
28310;BME280;15571;50.974;13.936;2023-04-28T06:38:02;100121.59;;;8.45;100.00
28310;BME280;15571;50.974;13.936;2023-04-28T06:41:05;100119.91;;;8.60;100.00
28310;BME280;15571;50.974;13.936;2023-04-28T06:44:15;100111.22;;;8.70;100.00
28310;BME280;15571;50.974;13.936;2023-04-28T06:47:22;100100.75;;;8.82;100.00
28310;BME280;15571;50.974;13.936;2023-04-28T06:50:27;100105.13;;;8.94;100.00
28310;BME280;15571;50.974;13.936;2023-04-28T06:53:35;100105.97;;;9.04;100.00
28310;BME280;15571;50.974;13.936;2023-04-28T06:56:41;100107.72;;;9.10;100.00
28310;BME280;15571;50.974;13.936;2023-04-28T06:59:45;100096.38;;;9.15;100.00
28310;BME280;15571;50.974;13.936;2023-04-28T07:02:48;100100.72;;;9.24;100.00
28310;BME280;15571;50.974;13.936;2023-04-28T07:05:53;100092.88;;;9.29;100.00
28310;BME280;15571;50.974;13.936;2023-04-28T07:08:59;100089.41;;;9.30;100.00
28310;BME280;15571;50.974;13.936;2023-04-28T07:12:12;100088.50;;;9.37;100.00
28310;BME280;15571;50.974;13.936;2023-04-28T07:15:14;100091.13;;;9.40;100.00
28310;BME280;15571;50.974;13.936;2023-04-28T07:18:23;100091.09;;;9.48;100.00
28310;BME280;15571;50.974;13.936;2023-04-28T07:21:30;100082.38;;;9.52;100.00
28310;BME280;15571;50.974;13.936;2023-04-28T07:24:38;100077.13;;;9.57;100.00
28310;BME280;15571;50.974;13.936;2023-04-28T07:27:41;100064.91;;;9.63;100.00
28310;BME280;15571;50.974;13.936;2023-04-28T07:30:47;100070.13;;;9.68;100.00
28310;BME280;15571;50.974;13.936;2023-04-28T07:33:55;100063.09;;;9.76;100.00
28310;BME280;15571;50.974;13.936;2023-04-28T07:37:01;100062.19;;;9.87;100.00
28310;BME280;15571;50.974;13.936;2023-04-28T07:40:10;100057.75;;;9.96;100.00
28310;BME280;15571;50.974;13.936;2023-04-28T07:43:16;100060.34;;;10.01;100.00
28310;BME280;15571;50.974;13.936;2023-04-28T07:46:19;100056.81;;;10.11;100.00
28310;BME280;15571;50.974;13.936;2023-04-28T07:49:25;100057.63;;;10.20;100.00
28310;BME280;15571;50.974;13.936;2023-04-28T07:52:32;100048.84;;;10.28;100.00
28310;BME280;15571;50.974;13.936;2023-04-28T07:55:42;100046.16;;;10.35;100.00
28310;BME280;15571;50.974;13.936;2023-04-28T07:58:52;100041.81;;;10.43;100.00
28310;BME280;15571;50.974;13.936;2023-04-28T08:01:57;100047.84;;;10.50;100.00
28310;BME280;15571;50.974;13.936;2023-04-28T08:05:03;100034.69;;;10.57;100.00
28310;BME280;15571;50.974;13.936;2023-04-28T08:08:09;100043.38;;;10.61;100.00
28310;BME280;15571;50.974;13.936;2023-04-28T08:11:17;100037.22;;;10.68;100.00
28310;BME280;15571;50.974;13.936;2023-04-28T08:14:21;100027.56;;;10.73;100.00
28310;BME280;15571;50.974;13.936;2023-04-28T08:17:26;100021.41;;;10.81;100.00
28310;BME280;15571;50.974;13.936;2023-04-28T08:20:27;100020.44;;;10.88;100.00
28310;BME280;15571;50.974;13.936;2023-04-28T08:23:34;100016.06;;;10.90;100.00
28310;BME280;15571;50.974;13.936;2023-04-28T08:26:41;100014.22;;;11.01;100.00
28310;BME280;15571;50.974;13.936;2023-04-28T08:29:49;100015.88;;;11.09;100.00
28310;BME280;15571;50.974;13.936;2023-04-28T08:33:00;100019.25;;;11.20;100.00
28310;BME280;15571;50.974;13.936;2023-04-28T08:36:05;100019.13;;;11.29;100.00
28310;BME280;15571;50.974;13.936;2023-04-28T08:39:15;100019.03;;;11.39;100.00
28310;BME280;15571;50.974;13.936;2023-04-28T08:42:23;100003.19;;;11.48;100.00
28310;BME280;15571;50.974;13.936;2023-04-28T08:45:27;100009.16;;;11.59;100.00
28310;BME280;15571;50.974;13.936;2023-04-28T08:48:33;100010.78;;;11.66;100.00
28310;BME280;15571;50.974;13.936;2023-04-28T08:51:49;99996.66;;;11.77;100.00
28310;BME280;15571;50.974;13.936;2023-04-28T08:54:58;99989.66;;;11.80;100.00
28310;BME280;15571;50.974;13.936;2023-04-28T08:58:04;99997.41;;;11.88;100.00
28310;BME280;15571;50.974;13.936;2023-04-28T09:01:11;99983.28;;;11.98;100.00
28310;BME280;15571;50.974;13.936;2023-04-28T09:04:14;99984.91;;;12.06;100.00
28310;BME280;15571;50.974;13.936;2023-04-28T09:07:17;99972.63;;;12.11;100.00
28310;BME280;15571;50.974;13.936;2023-04-28T09:10:23;99982.91;;;12.23;100.00
28310;BME280;15571;50.974;13.936;2023-04-28T09:13:28;99978.41;;;12.32;100.00
28310;BME280;15571;50.974;13.936;2023-04-28T09:16:38;99981.81;;;12.37;100.00
28310;BME280;15571;50.974;13.936;2023-04-28T09:19:44;99983.47;;;12.42;100.00
28310;BME280;15571;50.974;13.936;2023-04-28T09:22:50;99968.34;;;12.55;100.00
28310;BME280;15571;50.974;13.936;2023-04-28T09:25:58;99964.69;;;12.66;100.00
28310;BME280;15571;50.974;13.936;2023-04-28T09:29:11;99967.13;;;12.76;100.00
28310;BME280;15571;50.974;13.936;2023-04-28T09:32:22;99976.56;;;12.85;100.00
28310;BME280;15571;50.974;13.936;2023-04-28T09:35:39;99968.50;;;12.95;98.75
28310;BME280;15571;50.974;13.936;2023-04-28T09:38:45;99967.53;;;13.02;96.83
28310;BME280;15571;50.974;13.936;2023-04-28T09:41:58;99967.34;;;13.11;96.42
28310;BME280;15571;50.974;13.936;2023-04-28T09:49:53;99955.59;;;13.28;96.45
28310;BME280;15571;50.974;13.936;2023-04-28T09:53:01;99964.25;;;13.33;96.63
28310;BME280;15571;50.974;13.936;2023-04-28T09:56:03;99961.50;;;13.37;94.87
28310;BME280;15571;50.974;13.936;2023-04-28T09:59:09;99950.91;;;13.44;94.46
28310;BME280;15571;50.974;13.936;2023-04-28T10:02:14;99946.47;;;13.47;90.27
28310;BME280;15571;50.974;13.936;2023-04-28T10:05:22;99952.47;;;13.52;89.93
28310;BME280;15571;50.974;13.936;2023-04-28T10:08:25;99952.34;;;13.59;89.70
28310;BME280;15571;50.974;13.936;2023-04-28T10:11:30;99945.22;;;13.64;89.57
28310;BME280;15571;50.974;13.936;2023-04-28T10:14:37;99943.41;;;13.66;90.06
28310;BME280;15571;50.974;13.936;2023-04-28T10:17:42;99942.56;;;13.64;82.32
28310;BME280;15571;50.974;13.936;2023-04-28T10:20:52;99946.72;;;13.74;84.83
28310;BME280;15571;50.974;13.936;2023-04-28T10:24:06;99943.16;;;13.77;86.17
28310;BME280;15571;50.974;13.936;2023-04-28T10:27:13;99949.28;;;13.77;85.84
28310;BME280;15571;50.974;13.936;2023-04-28T10:30:21;99953.66;;;13.78;85.77
28310;BME280;15571;50.974;13.936;2023-04-28T10:33:28;99948.34;;;13.80;87.39
28310;BME280;15571;50.974;13.936;2023-04-28T10:36:48;99946.63;;;13.79;88.31
28310;BME280;15571;50.974;13.936;2023-04-28T10:43:31;99942.41;;;13.72;90.95
28310;BME280;15571;50.974;13.936;2023-04-28T10:46:58;99950.34;;;13.70;92.66
28310;BME280;15571;50.974;13.936;2023-04-28T10:50:07;99960.94;;;13.67;94.69
28310;BME280;15571;50.974;13.936;2023-04-28T10:53:21;99945.22;;;13.64;96.37
28310;BME280;15571;50.974;13.936;2023-04-28T11:00:25;99960.25;;;13.59;100.00
28310;BME280;15571;50.974;13.936;2023-04-28T11:03:43;99962.09;;;13.53;100.00
28310;BME280;15571;50.974;13.936;2023-04-28T11:10:09;99985.84;;;13.50;100.00
28310;BME280;15571;50.974;13.936;2023-04-28T11:13:26;99984.16;;;13.46;100.00
28310;BME280;15571;50.974;13.936;2023-04-28T11:16:36;99985.09;;;13.44;100.00
28310;BME280;15571;50.974;13.936;2023-04-28T11:19:52;99984.22;;;13.43;100.00
28310;BME280;15571;50.974;13.936;2023-04-28T11:22:58;99991.31;;;13.39;100.00
28310;BME280;15571;50.974;13.936;2023-04-28T11:26:04;99987.81;;;13.39;100.00
28310;BME280;15571;50.974;13.936;2023-04-28T11:29:07;99992.25;;;13.35;100.00
28310;BME280;15571;50.974;13.936;2023-04-28T11:32:14;99996.63;;;13.35;100.00
28310;BME280;15571;50.974;13.936;2023-04-28T11:35:17;99996.63;;;13.35;100.00
28310;BME280;15571;50.974;13.936;2023-04-28T11:38:20;100000.16;;;13.34;100.00
28310;BME280;15571;50.974;13.936;2023-04-28T11:41:24;100001.03;;;13.34;100.00
28310;BME280;15571;50.974;13.936;2023-04-28T11:44:28;99993.16;;;13.33;100.00
28310;BME280;15571;50.974;13.936;2023-04-28T11:47:32;99991.38;;;13.35;100.00
28310;BME280;15571;50.974;13.936;2023-04-28T11:50:39;99996.63;;;13.36;100.00
28310;BME280;15571;50.974;13.936;2023-04-28T11:53:51;99992.16;;;13.38;100.00
28310;BME280;15571;50.974;13.936;2023-04-28T11:56:58;99986.03;;;13.41;100.00
28310;BME280;15571;50.974;13.936;2023-04-28T12:00:12;99996.47;;;13.44;100.00
28310;BME280;15571;50.974;13.936;2023-04-28T12:03:15;99999.94;;;13.46;100.00
28310;BME280;15571;50.974;13.936;2023-04-28T12:06:18;99988.56;;;13.46;100.00
28310;BME280;15571;50.974;13.936;2023-04-28T12:09:21;99985.03;;;13.47;100.00
28310;BME280;15571;50.974;13.936;2023-04-28T12:12:28;99987.69;;;13.45;100.00
28310;BME280;15571;50.974;13.936;2023-04-28T12:15:38;99984.13;;;13.48;100.00
28310;BME280;15571;50.974;13.936;2023-04-28T12:18:57;99972.78;;;13.46;100.00
28310;BME280;15571;50.974;13.936;2023-04-28T12:22:07;99973.66;;;13.46;100.00
28310;BME280;15571;50.974;13.936;2023-04-28T12:25:12;99973.66;;;13.46;100.00
28310;BME280;15571;50.974;13.936;2023-04-28T12:28:20;99972.75;;;13.47;100.00
28310;BME280;15571;50.974;13.936;2023-04-28T12:31:26;99977.13;;;13.48;100.00
28310;BME280;15571;50.974;13.936;2023-04-28T12:34:39;99966.59;;;13.48;100.00
28310;BME280;15571;50.974;13.936;2023-04-28T12:37:45;99959.53;;;13.50;100.00
28310;BME280;15571;50.974;13.936;2023-04-28T12:40:49;99959.50;;;13.52;100.00
28310;BME280;15571;50.974;13.936;2023-04-28T12:47:39;99953.34;;;13.53;100.00
28310;BME280;15571;50.974;13.936;2023-04-28T12:58:27;99960.28;;;13.56;100.00
28310;BME280;15571;50.974;13.936;2023-04-28T13:01:42;99959.41;;;13.57;100.00
28310;BME280;15571;50.974;13.936;2023-04-28T13:04:48;99952.41;;;13.56;100.00
28310;BME280;15571;50.974;13.936;2023-04-28T13:07:52;99956.81;;;13.55;100.00
28310;BME280;15571;50.974;13.936;2023-04-28T13:10:55;99951.56;;;13.55;100.00
28310;BME280;15571;50.974;13.936;2023-04-28T13:13:57;99948.94;;;13.53;100.00
28310;BME280;15571;50.974;13.936;2023-04-28T13:17:05;99942.00;;;13.51;100.00
28310;BME280;15571;50.974;13.936;2023-04-28T13:20:16;99936.78;;;13.49;100.00
28310;BME280;15571;50.974;13.936;2023-04-28T13:23:24;99928.06;;;13.47;100.00
28310;BME280;15571;50.974;13.936;2023-04-28T13:26:28;99928.06;;;13.47;100.00
28310;BME280;15571;50.974;13.936;2023-04-28T13:29:32;99927.19;;;13.47;100.00
28310;BME280;15571;50.974;13.936;2023-04-28T13:32:35;99918.47;;;13.45;100.00
28310;BME280;15571;50.974;13.936;2023-04-28T13:35:43;99912.34;;;13.44;100.00
28310;BME280;15571;50.974;13.936;2023-04-28T13:38:46;99916.75;;;13.42;100.00
28310;BME280;15571;50.974;13.936;2023-04-28T13:41:53;99908.88;;;13.42;100.00
28310;BME280;15571;50.974;13.936;2023-04-28T13:44:58;99906.25;;;13.42;100.00
28310;BME280;15571;50.974;13.936;2023-04-28T13:48:07;99897.53;;;13.40;100.00
28310;BME280;15571;50.974;13.936;2023-04-28T13:51:13;99890.50;;;13.41;100.00
28310;BME280;15571;50.974;13.936;2023-04-28T13:54:16;99888.72;;;13.43;100.00
28310;BME280;15571;50.974;13.936;2023-04-28T13:57:23;99884.31;;;13.43;100.00
28310;BME280;15571;50.974;13.936;2023-04-28T14:00:33;99880.78;;;13.44;100.00
28310;BME280;15571;50.974;13.936;2023-04-28T14:03:40;99879.88;;;13.45;100.00
28310;BME280;15571;50.974;13.936;2023-04-28T14:06:52;99873.72;;;13.46;100.00
28310;BME280;15571;50.974;13.936;2023-04-28T14:10:02;99872.78;;;13.49;100.00
28310;BME280;15571;50.974;13.936;2023-04-28T14:13:07;99872.78;;;13.50;100.00
28310;BME280;15571;50.974;13.936;2023-04-28T14:16:10;99871.88;;;13.51;100.00
28310;BME280;15571;50.974;13.936;2023-04-28T14:19:18;99865.78;;;13.49;100.00
28310;BME280;15571;50.974;13.936;2023-04-28T14:22:31;99860.47;;;13.51;100.00
28310;BME280;15571;50.974;13.936;2023-04-28T14:25:43;99859.63;;;13.50;100.00
28310;BME280;15571;50.974;13.936;2023-04-28T14:28:51;99847.38;;;13.49;100.00
28310;BME280;15571;50.974;13.936;2023-04-28T14:32:00;99845.66;;;13.48;100.00
28310;BME280;15571;50.974;13.936;2023-04-28T14:35:05;99836.91;;;13.46;100.00
28310;BME280;15571;50.974;13.936;2023-04-28T14:38:13;99844.81;;;13.46;100.00
28310;BME280;15571;50.974;13.936;2023-04-28T14:41:20;99838.72;;;13.44;100.00
28310;BME280;15571;50.974;13.936;2023-04-28T14:44:24;99831.72;;;13.43;100.00
28310;BME280;15571;50.974;13.936;2023-04-28T14:47:29;99836.13;;;13.43;100.00
28310;BME280;15571;50.974;13.936;2023-04-28T14:50:33;99823.88;;;13.42;100.00
28310;BME280;15571;50.974;13.936;2023-04-28T14:53:37;99823.03;;;13.41;100.00
28310;BME280;15571;50.974;13.936;2023-04-28T14:56:42;99819.56;;;13.39;100.00
28310;BME280;15571;50.974;13.936;2023-04-28T16:02:36;99780.44;;;13.25;100.00
28310;BME280;15571;50.974;13.936;2023-04-28T16:16:02;99775.31;;;13.19;100.00
28310;BME280;15571;50.974;13.936;2023-04-28T16:23:25;99768.41;;;13.15;100.00
28310;BME280;15571;50.974;13.936;2023-04-28T16:34:36;99763.28;;;13.08;100.00
28310;BME280;15571;50.974;13.936;2023-04-28T17:03:47;99738.16;;;12.97;100.00
28310;BME280;15571;50.974;13.936;2023-04-28T17:08:09;99733.84;;;12.94;100.00
28310;BME280;15571;50.974;13.936;2023-04-28T17:48:03;99722.81;;;12.78;100.00
28310;BME280;15571;50.974;13.936;2023-04-28T18:00:57;99724.63;;;12.76;100.00
28310;BME280;15571;50.974;13.936;2023-04-28T19:52:06;99732.22;;;12.49;100.00
28310;BME280;15571;50.974;13.936;2023-04-28T19:55:10;99726.94;;;12.49;100.00
28310;BME280;15571;50.974;13.936;2023-04-28T19:58:20;99726.94;;;12.49;100.00
28310;BME280;15571;50.974;13.936;2023-04-28T20:01:29;99721.72;;;12.49;100.00
28310;BME280;15571;50.974;13.936;2023-04-28T20:04:31;99719.13;;;12.48;100.00
28310;BME280;15571;50.974;13.936;2023-04-28T20:07:45;99716.47;;;12.49;100.00
28310;BME280;15571;50.974;13.936;2023-04-28T20:10:48;99719.09;;;12.49;100.00
28310;BME280;15571;50.974;13.936;2023-04-28T20:13:53;99717.34;;;12.48;100.00
28310;BME280;15571;50.974;13.936;2023-04-28T20:16:56;99713.00;;;12.47;100.00
28310;BME280;15571;50.974;13.936;2023-04-28T20:20:03;99713.00;;;12.47;100.00
28310;BME280;15571;50.974;13.936;2023-04-28T20:23:09;99713.00;;;12.47;100.00
28310;BME280;15571;50.974;13.936;2023-04-28T20:26:11;99703.38;;;12.46;100.00
28310;BME280;15571;50.974;13.936;2023-04-28T20:29:15;99703.38;;;12.46;100.00
28310;BME280;15571;50.974;13.936;2023-04-28T20:32:19;99693.78;;;12.45;100.00
28310;BME280;15571;50.974;13.936;2023-04-28T20:35:22;99698.19;;;12.44;100.00
28310;BME280;15571;50.974;13.936;2023-04-28T20:38:29;99702.56;;;12.44;100.00
28310;BME280;15571;50.974;13.936;2023-04-28T20:41:42;99696.41;;;12.45;100.00
28310;BME280;15571;50.974;13.936;2023-04-28T20:44:46;99693.81;;;12.43;100.00
28310;BME280;15571;50.974;13.936;2023-04-28T20:47:50;99684.22;;;12.44;100.00
28310;BME280;15571;50.974;13.936;2023-04-28T20:50:55;99685.09;;;12.43;100.00
28310;BME280;15571;50.974;13.936;2023-04-28T20:54:05;99678.97;;;12.42;100.00
28310;BME280;15571;50.974;13.936;2023-04-28T20:57:12;99678.13;;;12.42;100.00
28310;BME280;15571;50.974;13.936;2023-04-28T21:00:17;99671.97;;;12.43;100.00
28310;BME280;15571;50.974;13.936;2023-04-28T21:03:23;99668.50;;;12.41;100.00
28310;BME280;15571;50.974;13.936;2023-04-28T21:06:28;99667.63;;;12.42;100.00